Time;durP1;ratioP1;P1;durP2;ratioP2;P2;SDS_P1;SDS_P2;PMS_P1;PMS_P2;Temp;Humidity;BMP_temperature;BMP_pressure;BME280_temperature;BME280_humidity;BME280_pressure;Samples;Min_cycle;Max_cycle;Signal;HPM_P1;HPM_P2
2022/02/15 00:02:14;;;;;;;79.78;36.92;;;7.40;99.90;;;;;;4879405;29;20750;-89
2022/02/15 00:04:43;;;;;;;76.85;34.38;;;7.40;99.90;;;;;;4880537;29;20235;-88
2022/02/15 00:07:09;;;;;;;80.07;33.25;;;7.50;99.90;;;;;;4879331;29;20167;-89
2022/02/15 00:09:37;;;;;;;78.20;28.87;;;7.50;99.90;;;;;;4879316;29;20226;-89
2022/02/15 00:12:06;;;;;;;75.13;24.35;;;7.50;99.90;;;;;;4877906;29;20415;-89
2022/02/15 00:14:33;;;;;;;78.20;34.00;;;7.50;99.90;;;;;;4879047;29;20166;-89
2022/02/15 00:17:14;;;;;;;78.57;34.28;;;7.40;99.90;;;;;;4880325;29;20182;-89
2022/02/15 00:19:42;;;;;;;82.45;32.75;;;7.40;99.90;;;;;;4880470;29;20209;-89
2022/02/15 00:22:15;;;;;;;75.53;27.73;;;7.50;99.90;;;;;;4880402;29;20198;-89
2022/02/15 00:24:41;;;;;;;81.65;34.78;;;7.50;99.90;;;;;;4880127;29;20174;-89
2022/02/15 00:27:07;;;;;;;77.30;24.27;;;7.50;99.90;;;;;;4878916;29;20201;-89
2022/02/15 00:29:44;;;;;;;75.07;28.73;;;7.60;99.90;;;;;;4878917;29;20207;-89
2022/02/15 00:32:15;;;;;;;80.07;26.42;;;7.50;99.90;;;;;;4878893;29;20170;-89
2022/02/15 00:34:43;;;;;;;78.43;26.73;;;7.50;99.90;;;;;;4880101;29;20151;-89
2022/02/15 00:37:12;;;;;;;79.30;26.67;;;7.50;99.90;;;;;;4878850;29;20257;-89
2022/02/15 00:39:40;;;;;;;76.88;27.95;;;7.60;99.90;;;;;;4879956;29;20170;-89
2022/02/15 00:42:06;;;;;;;75.97;24.98;;;7.50;99.90;;;;;;4878673;29;20677;-89
2022/02/15 00:44:31;;;;;;;77.67;26.77;;;7.50;99.90;;;;;;4880170;29;20250;-89
2022/02/15 00:47:13;;;;;;;75.83;24.00;;;7.50;99.90;;;;;;4878913;29;20928;-89
2022/02/15 00:49:39;;;;;;;75.05;24.90;;;7.50;99.90;;;;;;4879898;29;20523;-89
2022/02/15 00:54:38;;;;;;;77.75;28.25;;;7.50;99.90;;;;;;5015992;23;20214;-89
2022/02/15 00:57:09;;;;;;;74.45;28.20;;;7.50;99.90;;;;;;4942543;23;20238;-89
2022/02/15 00:59:38;;;;;;;77.72;36.13;;;7.50;99.90;;;;;;4878553;29;20539;-89
2022/02/15 01:02:04;;;;;;;81.85;36.95;;;7.50;99.90;;;;;;4879533;29;20297;-89
2022/02/15 01:04:30;;;;;;;79.00;36.23;;;7.60;99.90;;;;;;4879600;29;20254;-89
2022/02/15 01:06:55;;;;;;;76.70;33.00;;;7.60;99.90;;;;;;4879809;29;20427;-89
2022/02/15 01:09:21;;;;;;;78.20;32.93;;;7.60;99.90;;;;;;4879644;29;20172;-89
2022/02/15 01:11:47;;;;;;;81.33;32.53;;;7.60;99.90;;;;;;4879554;29;20166;-89
2022/02/15 01:14:13;;;;;;;81.80;35.27;;;7.60;99.90;;;;;;4879678;29;20178;-89
2022/02/15 01:16:46;;;;;;;81.53;35.90;;;7.70;99.90;;;;;;4879694;29;20214;-89
2022/02/15 01:19:12;;;;;;;78.00;38.50;;;7.60;99.90;;;;;;4879547;29;20387;-89
2022/02/15 01:21:37;;;;;;;78.70;34.40;;;7.60;99.90;;;;;;4879403;29;20221;-89
2022/02/15 01:24:06;;;;;;;74.87;29.17;;;7.60;99.90;;;;;;4879362;29;20167;-89
2022/02/15 01:26:35;;;;;;;79.65;37.90;;;7.60;99.90;;;;;;4879058;29;20559;-89
2022/02/15 01:29:03;;;;;;;83.40;31.17;;;7.70;99.90;;;;;;4879475;29;20162;-89
2022/02/15 01:31:32;;;;;;;80.30;30.25;;;7.70;99.90;;;;;;4878123;29;20182;-89
2022/02/15 01:33:58;;;;;;;84.13;31.77;;;7.80;99.90;;;;;;4879412;29;20202;-89
2022/02/15 01:36:24;;;;;;;80.83;30.57;;;7.80;99.90;;;;;;4909768;23;20261;-89
2022/02/15 01:38:53;;;;;;;77.93;30.40;;;7.80;99.90;;;;;;4878438;29;20174;-89
2022/02/15 01:41:28;;;;;;;78.90;33.47;;;7.80;99.90;;;;;;4878156;29;20262;-89
2022/02/15 01:43:56;;;;;;;72.97;24.45;;;7.80;99.90;;;;;;4879632;29;20154;-89
2022/02/15 01:46:32;;;;;;;81.25;32.10;;;7.80;99.90;;;;;;4879192;29;20194;-89
2022/02/15 01:48:58;;;;;;;80.05;30.17;;;7.80;99.90;;;;;;4879622;29;20712;-89
2022/02/15 01:51:26;;;;;;;79.07;33.10;;;7.80;99.90;;;;;;4878480;29;20269;-89
2022/02/15 01:53:52;;;;;;;75.45;25.27;;;7.80;99.90;;;;;;4878309;29;20182;-89
2022/02/15 01:56:18;;;;;;;77.68;31.92;;;7.80;99.90;;;;;;4877848;29;20202;-89
2022/02/15 01:58:44;;;;;;;76.38;32.75;;;7.80;99.90;;;;;;4879201;29;20597;-89
2022/02/15 02:01:21;;;;;;;76.80;28.20;;;7.80;99.90;;;;;;4877890;29;20285;-89
2022/02/15 02:03:49;;;;;;;78.50;29.42;;;7.80;99.90;;;;;;4878732;29;20490;-89
2022/02/15 02:06:14;;;;;;;77.72;31.67;;;7.80;99.90;;;;;;4879151;29;20540;-89
2022/02/15 02:08:40;;;;;;;77.87;31.70;;;7.80;99.90;;;;;;4878136;29;20222;-89
2022/02/15 02:11:06;;;;;;;77.07;30.70;;;7.70;99.90;;;;;;4879021;29;20178;-89
2022/02/15 02:13:36;;;;;;;81.00;37.90;;;7.70;99.90;;;;;;4879992;29;20435;-89
2022/02/15 02:16:04;;;;;;;76.45;29.55;;;7.70;99.90;;;;;;4879421;29;20221;-89
2022/02/15 02:18:30;;;;;;;77.90;33.75;;;7.70;99.90;;;;;;4878149;29;20202;-89
2022/02/15 02:21:00;;;;;;;76.80;34.33;;;7.70;99.90;;;;;;4878253;29;20249;-89
2022/02/15 02:23:32;;;;;;;79.72;35.08;;;7.70;99.90;;;;;;4879052;29;20147;-89
2022/02/15 02:26:03;;;;;;;74.85;30.63;;;7.70;99.90;;;;;;4877689;29;20190;-89
2022/02/15 02:28:32;;;;;;;77.00;34.33;;;7.60;99.90;;;;;;4877668;29;20170;-89
2022/02/15 02:31:05;;;;;;;80.50;31.08;;;7.70;99.90;;;;;;4878950;29;20167;-89
2022/02/15 02:33:30;;;;;;;76.78;34.70;;;7.80;99.90;;;;;;4877973;29;20256;-89
2022/02/15 02:36:02;;;;;;;76.37;28.93;;;7.90;99.90;;;;;;4877543;29;20247;-89
2022/02/15 02:38:51;;;;;;;79.93;23.40;;;7.90;99.90;;;;;;4880341;29;20183;-89
2022/02/15 02:41:19;;;;;;;80.90;26.05;;;7.90;99.90;;;;;;4869881;29;20214;-89
2022/02/15 02:43:54;;;;;;;76.70;23.48;;;7.90;99.90;;;;;;4880803;29;20174;-89
2022/02/15 02:46:23;;;;;;;75.28;18.25;;;8.00;99.90;;;;;;4881210;29;20197;-89
2022/02/15 02:48:48;;;;;;;71.82;20.67;;;8.00;99.90;;;;;;4882045;29;20174;-89
2022/02/15 02:51:15;;;;;;;81.60;25.27;;;7.90;99.90;;;;;;4880715;29;20643;-89
2022/02/15 02:53:40;;;;;;;71.55;16.73;;;7.90;99.90;;;;;;4881782;29;20636;-89
2022/02/15 02:56:06;;;;;;;72.97;17.23;;;8.00;99.90;;;;;;4881788;29;20201;-89
2022/02/15 02:58:32;;;;;;;75.75;20.38;;;8.00;99.90;;;;;;4882380;29;20185;-89
2022/02/15 03:00:58;;;;;;;70.60;15.13;;;8.00;99.90;;;;;;4881739;29;20667;-89
2022/02/15 03:03:23;;;;;;;76.57;22.80;;;8.00;99.90;;;;;;4881796;29;20419;-89
2022/02/15 03:05:49;;;;;;;76.80;28.77;;;7.90;99.90;;;;;;4880426;29;20191;-89
2022/02/15 03:08:15;;;;;;;75.17;27.90;;;7.80;99.90;;;;;;4880694;29;20178;-89
2022/02/15 03:10:40;;;;;;;75.60;32.27;;;7.80;99.90;;;;;;4880329;29;20178;-89
2022/02/15 03:13:06;;;;;;;75.77;25.93;;;7.80;99.90;;;;;;4880307;29;20174;-89
2022/02/15 03:15:31;;;;;;;77.67;27.73;;;7.90;99.90;;;;;;4881469;29;20199;-89
2022/02/15 03:17:57;;;;;;;82.40;31.77;;;7.80;99.90;;;;;;4880550;29;20174;-89
2022/02/15 03:20:23;;;;;;;78.80;29.37;;;7.80;99.90;;;;;;4881360;29;20190;-89
2022/02/15 03:22:48;;;;;;;77.37;31.10;;;7.80;99.90;;;;;;4881521;29;20185;-89
2022/02/15 03:25:14;;;;;;;76.37;25.30;;;7.90;99.90;;;;;;4880083;29;20187;-89
2022/02/15 03:27:40;;;;;;;79.77;29.83;;;7.90;99.90;;;;;;4881304;29;20253;-89
2022/02/15 03:30:06;;;;;;;79.83;32.93;;;7.90;99.90;;;;;;4881287;29;20166;-89
2022/02/15 03:32:32;;;;;;;81.30;36.47;;;7.80;99.90;;;;;;4879990;29;20580;-89
2022/02/15 03:34:57;;;;;;;74.67;28.77;;;7.90;99.90;;;;;;4881084;29;20197;-89
2022/02/15 03:37:23;;;;;;;77.70;33.60;;;7.80;99.90;;;;;;4881342;29;20702;-89
2022/02/15 03:39:48;;;;;;;81.60;34.53;;;7.90;99.90;;;;;;5066057;23;20224;-89
2022/02/15 03:45:01;;;;;;;79.60;33.08;;;7.80;99.90;;;;;;4881223;29;20738;-89
2022/02/15 03:47:26;;;;;;;75.80;29.83;;;7.90;99.90;;;;;;4881091;29;20174;-89
2022/02/15 03:49:55;;;;;;;78.30;31.07;;;7.90;99.90;;;;;;4880942;29;20174;-89
2022/02/15 03:52:21;;;;;;;77.13;26.70;;;7.80;99.90;;;;;;4879591;29;20190;-89
2022/02/15 03:54:47;;;;;;;74.30;27.80;;;7.80;99.90;;;;;;4880721;29;20544;-89
2022/02/15 03:57:15;;;;;;;79.20;28.23;;;7.90;99.90;;;;;;4880787;29;20640;-89
2022/02/15 03:59:47;;;;;;;76.40;28.73;;;7.90;99.90;;;;;;4879467;29;20418;-89
2022/02/15 04:02:12;;;;;;;76.63;29.27;;;7.90;99.90;;;;;;4880769;29;20186;-89
2022/02/15 04:04:38;;;;;;;81.17;29.87;;;7.90;99.90;;;;;;4880579;29;20222;-89
2022/02/15 04:07:10;;;;;;;79.00;28.80;;;7.90;99.90;;;;;;4880902;29;20167;-89
2022/02/15 04:09:38;;;;;;;80.78;26.17;;;7.80;99.90;;;;;;4880928;29;20608;-89
2022/02/15 04:12:04;;;;;;;82.18;31.55;;;7.70;99.90;;;;;;4879546;29;20201;-89
2022/02/15 04:14:30;;;;;;;79.32;31.70;;;7.70;99.90;;;;;;4879163;29;20174;-89
2022/02/15 04:16:57;;;;;;;76.60;27.93;;;7.80;99.90;;;;;;4880762;29;20190;-89
2022/02/15 04:19:25;;;;;;;78.22;30.70;;;7.70;99.90;;;;;;4880782;29;20177;-89
2022/02/15 04:21:54;;;;;;;78.07;31.00;;;7.80;99.90;;;;;;4880243;29;20567;-89
2022/02/15 04:24:20;;;;;;;76.47;26.58;;;7.80;99.90;;;;;;4879048;29;20177;-89
2022/02/15 04:26:48;;;;;;;78.65;30.30;;;7.70;99.90;;;;;;4880189;29;20566;-89
2022/02/15 04:29:14;;;;;;;80.75;29.30;;;7.70;99.90;;;;;;4880471;29;20191;-89
2022/02/15 04:31:40;;;;;;;78.57;26.20;;;7.60;99.90;;;;;;4880172;29;20225;-89
2022/02/15 04:34:06;;;;;;;78.85;30.67;;;7.60;99.90;;;;;;4880142;29;20174;-89
2022/02/15 04:36:32;;;;;;;76.97;30.30;;;7.60;99.90;;;;;;4878731;29;20555;-89
2022/02/15 04:38:57;;;;;;;77.77;33.20;;;7.50;99.90;;;;;;4880636;29;20166;-89
2022/02/15 04:41:23;;;;;;;83.30;32.63;;;7.50;99.90;;;;;;4880115;29;20222;-89
2022/02/15 04:43:58;;;;;;;82.80;37.40;;;7.40;99.90;;;;;;4879928;29;20161;-89
2022/02/15 04:46:26;;;;;;;77.03;28.65;;;7.40;99.90;;;;;;4878324;29;20278;-89
2022/02/15 04:48:52;;;;;;;80.10;37.63;;;7.40;99.90;;;;;;4879861;29;20631;-89
2022/02/15 04:51:18;;;;;;;87.33;46.93;;;7.40;99.90;;;;;;4878630;29;20239;-89
2022/02/15 04:53:43;;;;;;;85.47;46.70;;;7.40;99.90;;;;;;4878546;29;20190;-89
2022/02/15 04:56:09;;;;;;;90.90;58.97;;;7.40;99.90;;;;;;4954624;23;20234;-89
2022/02/15 04:58:35;;;;;;;108.53;91.17;;;7.40;99.90;;;;;;4878636;29;20680;-88
2022/02/15 05:01:00;;;;;;;103.40;85.87;;;7.30;99.90;;;;;;4877728;29;20575;-89
2022/02/15 05:03:26;;;;;;;105.13;90.40;;;7.30;99.90;;;;;;4878504;29;20261;-89
2022/02/15 05:05:52;;;;;;;109.03;93.47;;;7.40;99.90;;;;;;4879618;29;20265;-88
2022/02/15 05:08:17;;;;;;;94.57;75.60;;;7.50;99.90;;;;;;4879755;29;20173;-88
2022/02/15 05:10:43;;;;;;;98.30;77.40;;;7.40;99.90;;;;;;4878540;29;20174;-88
2022/02/15 05:13:11;;;;;;;102.67;89.80;;;7.40;99.90;;;;;;4880626;29;20171;-89
2022/02/15 05:15:37;;;;;;;97.93;77.97;;;7.40;99.90;;;;;;4879034;29;20198;-88
2022/02/15 05:18:04;;;;;;;97.30;85.38;;;7.40;99.90;;;;;;4879930;29;20543;-88
2022/02/15 05:20:30;;;;;;;96.10;79.45;;;7.40;99.90;;;;;;4879625;29;20285;-88
2022/02/15 05:22:56;;;;;;;108.20;94.93;;;7.40;99.90;;;;;;4878651;29;20639;-89
2022/02/15 05:25:21;;;;;;;93.67;76.93;;;7.30;99.90;;;;;;4878658;29;20195;-89
2022/02/15 05:27:47;;;;;;;98.27;81.17;;;7.30;99.90;;;;;;4879902;29;20541;-89
2022/02/15 05:30:13;;;;;;;100.37;88.97;;;7.40;99.90;;;;;;4879519;29;20438;-89
2022/02/15 05:32:40;;;;;;;98.60;80.37;;;7.40;99.90;;;;;;4878238;29;20186;-88
2022/02/15 05:35:08;;;;;;;104.53;91.57;;;7.30;99.90;;;;;;4879609;29;20199;-88
2022/02/15 05:37:37;;;;;;;100.07;89.25;;;7.30;99.90;;;;;;4879515;29;20162;-88
2022/02/15 05:40:06;;;;;;;95.93;80.65;;;7.30;99.90;;;;;;4878534;29;20167;-88
2022/02/15 05:42:31;;;;;;;108.63;97.32;;;7.20;99.90;;;;;;4878098;29;20171;-88
2022/02/15 05:44:57;;;;;;;101.80;84.50;;;7.10;99.90;;;;;;4879249;29;20209;-89
2022/02/15 05:47:23;;;;;;;103.73;92.50;;;7.20;99.90;;;;;;4879670;29;20641;-89
2022/02/15 05:52:32;;;;;;;96.75;83.00;;;7.30;99.90;;;;;;4879598;29;20165;-88
2022/02/15 05:54:58;;;;;;;101.10;89.97;;;7.30;99.90;;;;;;4879186;29;20670;-88
2022/02/15 05:57:24;;;;;;;96.57;78.93;;;7.30;99.90;;;;;;4879333;29;20171;-89
2022/02/15 05:59:49;;;;;;;101.33;85.83;;;7.20;99.90;;;;;;4878559;29;20175;-89
2022/02/15 06:02:15;;;;;;;100.27;84.60;;;7.20;99.90;;;;;;4878083;29;20199;-89
2022/02/15 06:04:41;;;;;;;95.00;78.63;;;7.20;99.90;;;;;;4879431;29;20171;-89
2022/02/15 06:07:06;;;;;;;117.57;105.43;;;7.20;99.90;;;;;;4879416;29;20589;-89
2022/02/15 06:09:32;;;;;;;96.57;79.17;;;7.10;99.90;;;;;;4879593;29;20167;-89
2022/02/15 06:11:58;;;;;;;108.77;96.87;;;7.20;99.90;;;;;;4881556;29;20239;-89
2022/02/15 06:14:24;;;;;;;98.88;87.45;;;7.20;99.90;;;;;;4881870;29;20474;-89
2022/02/15 06:16:53;;;;;;;101.35;89.35;;;7.20;99.90;;;;;;4882677;29;20218;-89
2022/02/15 06:19:18;;;;;;;101.20;88.63;;;7.10;99.90;;;;;;4882173;29;20547;-87
2022/02/15 06:21:44;;;;;;;94.47;73.47;;;7.20;99.90;;;;;;4884242;29;20231;-87
2022/02/15 06:24:10;;;;;;;104.33;91.73;;;7.20;99.90;;;;;;4886451;29;20202;-87
2022/02/15 06:26:35;;;;;;;102.17;82.10;;;7.30;99.90;;;;;;4886176;29;20194;-87
2022/02/15 06:29:01;;;;;;;97.33;80.17;;;7.20;99.90;;;;;;4885915;29;20167;-87
2022/02/15 06:31:27;;;;;;;104.13;92.77;;;7.10;99.90;;;;;;4884766;29;20591;-88
2022/02/15 06:33:52;;;;;;;107.63;96.43;;;7.10;99.90;;;;;;4884447;29;20291;-87
2022/02/15 06:36:18;;;;;;;98.57;85.93;;;7.00;99.90;;;;;;4885637;29;20218;-87
2022/02/15 06:38:46;;;;;;;99.50;86.27;;;7.00;99.90;;;;;;4886135;29;20170;-87
2022/02/15 06:41:12;;;;;;;98.93;77.63;;;7.00;99.90;;;;;;4889006;29;20221;-87
2022/02/15 06:43:38;;;;;;;96.72;75.97;;;6.90;99.90;;;;;;4882417;29;20171;-87
2022/02/15 06:46:04;;;;;;;99.40;79.87;;;6.80;99.90;;;;;;4881171;29;20187;-88
2022/02/15 06:48:29;;;;;;;89.73;56.40;;;6.80;99.90;;;;;;4882197;29;20171;-87
2022/02/15 06:50:55;;;;;;;94.83;69.93;;;6.70;99.90;;;;;;4882235;29;20189;-87
2022/02/15 06:53:21;;;;;;;94.40;67.90;;;6.70;99.90;;;;;;4883869;29;20178;-87
2022/02/15 06:55:47;;;;;;;94.17;59.83;;;6.70;99.90;;;;;;4884950;29;20286;-87
2022/02/15 06:58:12;;;;;;;91.40;61.60;;;6.70;99.90;;;;;;4889033;29;20171;-87
2022/02/15 07:00:38;;;;;;;93.30;61.17;;;6.70;99.90;;;;;;4887428;29;20588;-87
2022/02/15 07:03:04;;;;;;;90.90;55.40;;;6.70;99.90;;;;;;4885485;29;20174;-87
2022/02/15 07:05:31;;;;;;;91.57;56.28;;;6.80;99.90;;;;;;4884505;29;20852;-87
2022/02/15 07:07:56;;;;;;;88.03;55.35;;;6.90;99.90;;;;;;4882437;29;20174;-87
2022/02/15 07:10:22;;;;;;;93.67;46.77;;;6.90;99.90;;;;;;4883966;29;20175;-87
2022/02/15 07:12:48;;;;;;;88.90;53.43;;;6.90;99.90;;;;;;4881827;29;20178;-87
2022/02/15 07:15:13;;;;;;;95.23;57.50;;;6.90;99.90;;;;;;4881529;29;20195;-87
2022/02/15 07:17:40;;;;;;;88.00;51.83;;;6.90;99.90;;;;;;4883203;29;20253;-87
2022/02/15 07:20:06;;;;;;;87.45;49.33;;;6.90;99.90;;;;;;4881960;29;20222;-87
2022/02/15 07:22:33;;;;;;;89.47;55.65;;;6.90;99.90;;;;;;4881056;29;20525;-87
2022/02/15 07:24:59;;;;;;;86.30;53.25;;;7.00;99.90;;;;;;4881664;29;20229;-87
2022/02/15 07:27:29;;;;;;;84.95;46.88;;;7.00;99.90;;;;;;4882041;29;20675;-88
2022/02/15 07:29:55;;;;;;;87.03;46.92;;;7.10;99.90;;;;;;4880925;29;20171;-87
2022/02/15 07:32:25;;;;;;;86.95;54.83;;;7.10;99.90;;;;;;4881853;29;20234;-87
2022/02/15 07:34:52;;;;;;;84.40;43.72;;;7.00;99.90;;;;;;4880724;29;20179;-88
2022/02/15 07:37:18;;;;;;;85.90;50.05;;;7.00;99.90;;;;;;4881653;29;20171;-87
2022/02/15 07:39:44;;;;;;;86.10;48.03;;;7.00;99.90;;;;;;4881954;29;20159;-87
2022/02/15 07:42:10;;;;;;;82.67;41.53;;;7.10;99.90;;;;;;4881979;29;20187;-87
2022/02/15 07:44:36;;;;;;;85.53;48.83;;;7.10;99.90;;;;;;4880280;29;20239;-87
2022/02/15 07:47:02;;;;;;;85.63;43.50;;;7.10;99.90;;;;;;4880100;29;20194;-87
2022/02/15 07:49:29;;;;;;;81.80;38.75;;;7.20;99.90;;;;;;4881256;29;20171;-87
2022/02/15 07:51:55;;;;;;;85.50;40.08;;;7.20;99.90;;;;;;4882074;29;20234;-87
2022/02/15 07:54:24;;;;;;;84.80;40.80;;;7.00;99.90;;;;;;4882604;29;20171;-87
2022/02/15 07:56:52;;;;;;;83.32;39.58;;;7.10;99.90;;;;;;4881830;29;20238;-88
2022/02/15 07:59:23;;;;;;;78.80;34.92;;;7.20;99.90;;;;;;4880348;29;20171;-88
2022/02/15 08:01:49;;;;;;;84.53;36.15;;;7.30;99.90;;;;;;4880452;29;20210;-88
2022/02/15 08:04:15;;;;;;;85.57;43.67;;;7.40;99.90;;;;;;4880695;29;20261;-88
2022/02/15 08:06:41;;;;;;;83.80;37.47;;;7.40;99.90;;;;;;4880469;29;20190;-88
2022/02/15 08:09:14;;;;;;;82.22;39.67;;;7.50;99.90;;;;;;4881593;29;20166;-88
2022/02/15 08:11:45;;;;;;;86.30;38.78;;;7.40;99.90;;;;;;4882296;29;20214;-88
2022/02/15 08:14:12;;;;;;;82.47;33.85;;;7.50;99.90;;;;;;4881926;29;20643;-87
2022/02/15 08:16:38;;;;;;;94.00;34.35;;;7.60;99.90;;;;;;4883006;29;20258;-87
2022/02/15 08:19:04;;;;;;;80.50;35.53;;;7.70;99.90;;;;;;4880612;29;20197;-87
2022/02/15 08:21:30;;;;;;;90.10;49.27;;;7.80;99.90;;;;;;4880636;29;20975;-88
2022/02/15 08:23:58;;;;;;;86.03;48.50;;;7.80;99.90;;;;;;4881850;29;20195;-87
2022/02/15 08:26:25;;;;;;;91.13;54.63;;;7.90;99.90;;;;;;4882867;29;20195;-88
2022/02/15 08:28:51;;;;;;;93.70;59.67;;;7.90;99.90;;;;;;4881870;29;20171;-88
2022/02/15 08:31:17;;;;;;;95.82;61.65;;;7.90;99.90;;;;;;4879958;29;20175;-88
2022/02/15 08:33:43;;;;;;;97.17;69.60;;;7.90;99.90;;;;;;4880665;29;20174;-88
2022/02/15 08:36:09;;;;;;;91.73;61.27;;;7.90;99.90;;;;;;4879979;29;20194;-88
2022/02/15 08:38:34;;;;;;;90.45;61.40;;;7.90;1.00;;;;;;4881040;29;20647;-88
2022/02/15 08:41:01;;;;;;;99.77;71.33;;;7.80;96.90;;;;;;4880284;29;20186;-88
2022/02/15 08:43:27;;;;;;;95.95;74.63;;;7.90;99.90;;;;;;4880286;29;20176;-88
2022/02/15 08:45:53;;;;;;;99.83;81.37;;;8.00;99.90;;;;;;4879235;29;20195;-87
2022/02/15 08:48:18;;;;;;;94.53;66.73;;;8.00;99.90;;;;;;4881224;29;20910;-87
2022/02/15 08:50:44;;;;;;;101.80;81.87;;;8.10;19.10;;;;;;4879593;29;20820;-87
2022/02/15 08:53:10;;;;;;;104.00;84.87;;;8.10;1.00;;;;;;4880694;29;20178;-88
2022/02/15 08:55:35;;;;;;;93.30;70.20;;;8.10;1.00;;;;;;4880018;29;20239;-88
2022/02/15 08:58:01;;;;;;;98.53;79.97;;;8.20;1.00;;;;;;4878898;29;20539;-88
2022/02/15 09:00:30;;;;;;;90.60;61.97;;;8.20;1.00;;;;;;4878885;29;20260;-88
2022/02/15 09:02:58;;;;;;;93.43;59.05;;;8.20;99.90;;;;;;4880259;29;20171;-88
2022/02/15 09:05:24;;;;;;;87.75;50.75;;;8.20;1.00;;;;;;4878807;29;20187;-88
2022/02/15 09:07:53;;;;;;;87.70;46.63;;;8.20;1.00;;;;;;4878765;29;20178;-87
2022/02/15 09:10:18;;;;;;;84.03;37.33;;;8.30;1.00;;;;;;4879342;29;20243;-87
2022/02/15 09:12:44;;;;;;;85.87;41.13;;;8.40;1.00;;;;;;4880311;29;20581;-87
2022/02/15 09:15:13;;;;;;;83.27;35.77;;;8.40;1.00;;;;;;4879298;29;20190;-87
2022/02/15 09:17:39;;;;;;;82.15;32.83;;;8.50;1.00;;;;;;4879461;29;20181;-87
2022/02/15 09:20:10;;;;;;;81.25;30.80;;;8.60;1.00;;;;;;4879047;29;20185;-87
2022/02/15 09:22:37;;;;;;;81.13;27.30;;;8.60;99.90;;;;;;4880409;29;20174;-88
2022/02/15 09:25:04;;;;;;;76.70;22.95;;;8.60;99.90;;;;;;4881121;29;20243;-88
2022/02/15 09:27:29;;;;;;;77.32;26.27;;;8.70;99.90;;;;;;4881421;29;20249;-88
2022/02/15 09:29:55;;;;;;;77.13;24.17;;;8.70;99.90;;;;;;4880932;29;20209;-87
2022/02/15 09:32:21;;;;;;;76.77;16.80;;;8.60;99.90;;;;;;4879572;29;20174;-87
2022/02/15 09:34:46;;;;;;;71.27;13.93;;;8.60;66.30;;;;;;4880902;29;20197;-88
2022/02/15 09:37:12;;;;;;;75.03;13.37;;;8.50;99.90;;;;;;4881315;29;20673;-88
2022/02/15 09:39:38;;;;;;;75.00;14.30;;;8.60;99.90;;;;;;4880577;29;20174;-87
2022/02/15 09:42:07;;;;;;;74.67;15.77;;;8.50;99.90;;;;;;4880339;29;20237;-88
2022/02/15 09:44:33;;;;;;;73.47;15.10;;;8.50;99.90;;;;;;4880067;29;20455;-87
2022/02/15 09:46:59;;;;;;;72.33;15.70;;;8.50;99.90;;;;;;4884675;29;20194;-87
2022/02/15 09:52:13;;;;;;;73.22;17.48;;;8.40;99.90;;;;;;4885364;29;20223;-88
2022/02/15 09:54:40;;;;;;;74.00;14.20;;;8.50;99.90;;;;;;4885133;29;20173;-87
2022/02/15 09:57:06;;;;;;;73.93;16.67;;;8.50;99.90;;;;;;4886809;29;20233;-88
2022/02/15 09:59:31;;;;;;;76.40;14.80;;;8.50;99.90;;;;;;4885340;29;20182;-88
2022/02/15 10:01:57;;;;;;;78.50;16.53;;;8.50;99.90;;;;;;4886017;29;20447;-88
2022/02/15 10:04:34;;;;;;;72.77;16.07;;;8.50;99.90;;;;;;4886059;29;20175;-87
2022/02/15 10:07:02;;;;;;;74.65;17.05;;;8.50;99.90;;;;;;4885133;29;20194;-87
2022/02/15 10:09:28;;;;;;;73.70;16.30;;;8.60;99.90;;;;;;4885629;29;20167;-88
2022/02/15 10:12:03;;;;;;;73.28;16.75;;;8.70;99.90;;;;;;4886205;29;20209;-88
2022/02/15 10:14:29;;;;;;;73.28;15.27;;;8.70;99.90;;;;;;4886765;29;20146;-88
2022/02/15 10:16:55;;;;;;;75.25;15.75;;;8.70;99.90;;;;;;4887023;29;20202;-87
2022/02/15 10:19:31;;;;;;;72.67;16.27;;;8.80;99.90;;;;;;4885526;29;20194;-87
2022/02/15 10:22:02;;;;;;;74.07;15.48;;;8.90;99.90;;;;;;4884457;29;20197;-88
2022/02/15 10:24:30;;;;;;;74.13;13.82;;;8.90;99.90;;;;;;4886063;29;20628;-88
2022/02/15 10:27:01;;;;;;;73.97;11.63;;;8.90;99.90;;;;;;4886139;29;20194;-88
2022/02/15 10:29:32;;;;;;;69.75;10.65;;;8.90;99.90;;;;;;4885459;29;20163;-87
2022/02/15 10:31:59;;;;;;;70.78;11.10;;;9.00;99.90;;;;;;4887005;29;20170;-88
2022/02/15 10:34:26;;;;;;;73.60;10.43;;;8.90;99.90;;;;;;4886768;29;20183;-87
2022/02/15 10:36:59;;;;;;;68.75;9.27;;;9.00;99.90;;;;;;4885786;29;20694;-87
2022/02/15 10:39:56;;;;;;;73.03;9.90;;;8.90;99.90;;;;;;4885029;29;20179;-88
2022/02/15 10:42:24;;;;;;;71.97;7.75;;;8.90;99.90;;;;;;4878031;29;20218;-87
2022/02/15 10:45:00;;;;;;;70.13;7.45;;;9.00;99.90;;;;;;4886294;29;20675;-87
2022/02/15 10:47:40;;;;;;;67.28;7.55;;;9.00;99.90;;;;;;4885568;29;20190;-87
2022/02/15 10:50:11;;;;;;;67.63;7.88;;;9.20;99.90;;;;;;4883764;29;20166;-87
2022/02/15 10:52:37;;;;;;;66.68;6.35;;;9.10;99.90;;;;;;4882887;29;20258;-87
2022/02/15 10:55:04;;;;;;;67.88;7.88;;;9.30;99.90;;;;;;4882060;29;20297;-88
2022/02/15 10:57:29;;;;;;;69.38;6.88;;;9.30;99.90;;;;;;4881101;29;20273;-87
2022/02/15 10:59:57;;;;;;;67.93;8.53;;;9.40;99.10;;;;;;4883939;29;20258;-88
2022/02/15 11:02:26;;;;;;;68.72;10.88;;;9.70;96.10;;;;;;4882506;29;20194;-88
2022/02/15 11:04:53;;;;;;;74.03;9.55;;;9.90;95.50;;;;;;4882269;29;20163;-88
2022/02/15 11:07:25;;;;;;;66.97;7.68;;;10.00;86.10;;;;;;4882253;29;20165;-89
2022/02/15 11:10:13;;;;;;;69.85;8.20;;;10.10;81.00;;;;;;4881476;29;20194;-88
2022/02/15 11:12:44;;;;;;;69.65;8.40;;;10.30;78.00;;;;;;4877236;29;20193;-87
2022/02/15 11:15:12;;;;;;;70.93;9.32;;;10.20;58.10;;;;;;4881614;29;20218;-88
2022/02/15 11:17:49;;;;;;;68.03;10.60;;;10.20;65.60;;;;;;4882372;29;20202;-87
2022/02/15 11:20:17;;;;;;;68.30;11.13;;;10.30;61.80;;;;;;4881108;29;20166;-88
2022/02/15 11:22:46;;;;;;;69.70;10.52;;;10.30;46.80;;;;;;4880651;29;20171;-88
2022/02/15 11:25:12;;;;;;;70.55;14.38;;;10.00;46.40;;;;;;4880551;29;20187;-88
2022/02/15 11:27:37;;;;;;;71.57;14.10;;;9.80;59.00;;;;;;4880687;29;20238;-88
2022/02/15 11:30:04;;;;;;;69.73;10.47;;;9.60;66.10;;;;;;4881731;29;20171;-88
2022/02/15 11:32:34;;;;;;;67.35;9.73;;;9.50;69.40;;;;;;4880737;29;20659;-88
2022/02/15 11:35:12;;;;;;;67.75;10.27;;;9.40;70.50;;;;;;4881300;29;20209;-87
2022/02/15 11:37:38;;;;;;;70.20;10.23;;;9.50;63.90;;;;;;4880588;29;20166;-88
2022/02/15 11:40:11;;;;;;;69.67;8.13;;;9.40;72.70;;;;;;4880009;29;20230;-88
2022/02/15 11:42:49;;;;;;;72.22;7.53;;;9.40;71.60;;;;;;4881713;29;20434;-88
2022/02/15 11:45:29;;;;;;;66.55;6.47;;;9.30;74.60;;;;;;4880363;29;20195;-88
2022/02/15 11:48:06;;;;;;;68.15;7.00;;;9.10;80.90;;;;;;4881669;29;20167;-87
2022/02/15 11:50:44;;;;;;;66.80;7.03;;;9.10;79.80;;;;;;4881800;29;20166;-88
2022/02/15 11:53:16;;;;;;;67.15;6.05;;;9.00;79.50;;;;;;4880554;29;20181;-88
2022/02/15 11:55:43;;;;;;;68.20;8.63;;;9.00;76.10;;;;;;4880560;29;20213;-88
2022/02/15 11:58:09;;;;;;;69.13;9.70;;;9.10;81.30;;;;;;4881670;29;20170;-88
2022/02/15 12:00:37;;;;;;;68.40;7.70;;;9.30;77.60;;;;;;4882099;29;20205;-87
2022/02/15 12:03:03;;;;;;;68.35;8.90;;;9.50;58.80;;;;;;4880799;29;20237;-87
2022/02/15 12:05:33;;;;;;;71.03;9.00;;;9.80;38.20;;;;;;4881844;29;20194;-88
2022/02/15 12:08:00;;;;;;;66.03;8.48;;;10.00;33.30;;;;;;4881823;29;20601;-87
2022/02/15 12:10:34;;;;;;;67.32;8.85;;;10.20;26.80;;;;;;4880578;29;20177;-87
2022/02/15 12:13:00;;;;;;;70.30;6.03;;;10.50;21.20;;;;;;4882056;29;20215;-87
2022/02/15 12:15:29;;;;;;;69.60;8.63;;;10.50;11.20;;;;;;4881439;29;20187;-87
2022/02/15 12:17:58;;;;;;;64.80;8.27;;;10.50;7.90;;;;;;4880847;29;20226;-88
2022/02/15 12:20:27;;;;;;;65.30;7.43;;;10.50;9.30;;;;;;4880516;29;20177;-88
2022/02/15 12:23:02;;;;;;;64.75;6.80;;;10.20;3.20;;;;;;4880590;29;20222;-87
2022/02/15 12:25:28;;;;;;;64.88;7.00;;;10.00;3.80;;;;;;4880972;29;20265;-87
2022/02/15 12:28:03;;;;;;;64.83;8.47;;;9.90;10.90;;;;;;4879695;29;20198;-88
2022/02/15 12:30:28;;;;;;;68.88;7.80;;;9.80;10.90;;;;;;4882160;29;20411;-88
2022/02/15 12:33:00;;;;;;;68.70;7.40;;;9.80;13.40;;;;;;4880418;29;20189;-88
2022/02/15 12:35:29;;;;;;;65.57;7.50;;;9.70;13.10;;;;;;4880559;29;20194;-88
2022/02/15 12:38:01;;;;;;;64.88;7.55;;;9.70;14.90;;;;;;4880807;29;20175;-88
2022/02/15 12:40:28;;;;;;;64.13;7.75;;;9.60;15.60;;;;;;4879685;29;20647;-88
2022/02/15 12:42:54;;;;;;;64.78;6.75;;;9.50;18.20;;;;;;4880628;29;20222;-88
2022/02/15 12:45:20;;;;;;;64.40;4.70;;;9.50;20.30;;;;;;4882890;29;20187;-87
2022/02/15 12:47:46;;;;;;;65.95;6.80;;;9.60;26.40;;;;;;4882260;29;20420;-88
2022/02/15 12:50:14;;;;;;;64.07;7.33;;;9.80;22.30;;;;;;4881892;29;20541;-87
2022/02/15 12:52:40;;;;;;;66.45;6.85;;;9.90;20.40;;;;;;4881013;29;20527;-87